Time,TemperatureF,DewpointF,PressureIn,WindDirection,WindDirectionDegrees,WindSpeedMPH,WindSpeedGustMPH,Humidity,HourlyPrecipIn,Conditions,Clouds,dailyrainin,SoftwareType,DateUTC
2013-09-26 00:00:00,54.3,49.3,30.01,NNE,31,0.0,0.0,83,0.00,,---,0.00,VWS V13.01,2013-09-26 05:00:00,
2013-09-26 00:05:00,54.1,49.1,30.01,NNE,31,0.0,0.0,83,0.00,,---,0.00,VWS V13.01,2013-09-26 05:05:00,
2013-09-26 00:10:00,54.1,49.1,30.01,NNE,31,0.0,0.0,83,0.00,,---,0.00,VWS V13.01,2013-09-26 05:10:00,
2013-09-26 00:15:00,54.0,48.9,30.01,NNE,31,0.0,0.0,83,0.00,,---,0.00,VWS V13.01,2013-09-26 05:15:00,
2013-09-26 00:20:00,53.8,48.8,30.01,NNE,31,0.0,0.0,83,0.00,,---,0.00,VWS V13.01,2013-09-26 05:20:00,
2013-09-26 00:25:00,53.8,48.8,30.01,NNE,31,0.0,0.0,83,0.00,,---,0.00,VWS V13.01,2013-09-26 05:25:00,
2013-09-26 00:30:00,53.8,48.8,30.01,NNE,31,0.0,0.0,83,0.00,,---,0.00,VWS V13.01,2013-09-26 05:30:00,
2013-09-26 00:35:00,53.6,48.6,30.01,NNE,31,0.0,0.0,83,0.00,,---,0.00,VWS V13.01,2013-09-26 05:35:00,
2013-09-26 00:40:00,53.6,48.6,30.01,NNE,31,0.0,0.0,83,0.00,,---,0.00,VWS V13.01,2013-09-26 05:40:00,
2013-09-26 00:45:00,53.6,48.9,30.01,NNE,31,0.0,0.0,84,0.00,,---,0.00,VWS V13.01,2013-09-26 05:45:00,
2013-09-26 00:50:00,53.4,48.7,30.01,NNE,31,0.0,0.0,84,0.00,,---,0.00,VWS V13.01,2013-09-26 05:50:00,
2013-09-26 00:55:00,53.4,48.7,30.01,NNE,31,0.0,0.0,84,0.00,,---,0.00,VWS V13.01,2013-09-26 05:55:00,
2013-09-26 01:00:00,53.2,48.5,30.04,NNE,31,0.0,0.0,84,0.00,,---,0.00,VWS V13.01,2013-09-26 06:00:00,
2013-09-26 01:05:00,53.1,48.4,30.04,NNE,31,0.0,0.0,84,0.00,,---,0.00,VWS V13.01,2013-09-26 06:05:00,
2013-09-26 01:10:00,52.9,48.2,30.04,NNE,31,0.0,0.0,84,0.00,,---,0.00,VWS V13.01,2013-09-26 06:10:00,
2013-09-26 01:15:00,52.7,48.0,30.04,NNE,31,0.0,0.0,84,0.00,,---,0.00,VWS V13.01,2013-09-26 06:15:00,
2013-09-26 01:20:00,52.5,47.8,30.04,NNE,31,0.0,0.0,84,0.00,,---,0.00,VWS V13.01,2013-09-26 06:20:00,
2013-09-26 01:25:00,52.2,47.5,30.04,NNE,31,0.0,0.0,84,0.00,,---,0.00,VWS V13.01,2013-09-26 06:25:00,
2013-09-26 01:30:00,52.0,47.3,30.04,NNE,31,0.0,0.0,84,0.00,,---,0.00,VWS V13.01,2013-09-26 06:30:00,
2013-09-26 01:35:00,51.8,47.1,30.04,NNE,31,0.0,0.0,84,0.00,,---,0.00,VWS V13.01,2013-09-26 06:35:00,
2013-09-26 01:40:00,51.6,47.0,30.04,NNE,31,0.0,0.0,84,0.00,,---,0.00,VWS V13.01,2013-09-26 06:40:00,
2013-09-26 01:45:00,51.4,46.8,30.04,NNE,31,0.0,0.0,84,0.00,,---,0.00,VWS V13.01,2013-09-26 06:45:00,
2013-09-26 01:50:00,51.3,46.6,30.04,NNE,31,0.0,0.0,84,0.00,,---,0.00,VWS V13.01,2013-09-26 06:50:00,
2013-09-26 01:55:00,51.1,46.4,30.04,NNE,31,0.0,0.0,84,0.00,,---,0.00,VWS V13.01,2013-09-26 06:55:00,
2013-09-26 02:00:00,50.9,46.2,30.04,NNE,31,0.0,0.0,84,0.00,,---,0.00,VWS V13.01,2013-09-26 07:00:00,
2013-09-26 02:05:00,50.5,45.9,30.04,NNE,31,0.0,0.0,84,0.00,,---,0.00,VWS V13.01,2013-09-26 07:05:00,
2013-09-26 02:10:00,50.4,45.7,30.04,NNE,31,0.0,0.0,84,0.00,,---,0.00,VWS V13.01,2013-09-26 07:10:00,
2013-09-26 02:15:00,50.2,45.5,30.04,NNE,31,0.0,0.0,84,0.00,,---,0.00,VWS V13.01,2013-09-26 07:15:00,
2013-09-26 02:20:00,50.2,45.5,30.04,NNE,31,0.0,0.0,84,0.00,,---,0.00,VWS V13.01,2013-09-26 07:20:00,
2013-09-26 02:25:00,50.0,45.4,30.04,NNE,31,0.0,0.0,84,0.00,,---,0.00,VWS V13.01,2013-09-26 07:25:00,
2013-09-26 02:30:00,49.8,45.2,30.04,NNE,31,0.0,0.0,84,0.00,,---,0.00,VWS V13.01,2013-09-26 07:30:00,
2013-09-26 02:35:00,49.5,44.8,30.04,NNE,31,0.0,0.0,84,0.00,,---,0.00,VWS V13.01,2013-09-26 07:35:00,
2013-09-26 02:40:00,49.3,44.7,30.04,NNE,31,0.0,0.0,84,0.00,,---,0.00,VWS V13.01,2013-09-26 07:40:00,
2013-09-26 02:45:00,48.9,44.3,30.04,NNE,31,0.0,0.0,84,0.00,,---,0.00,VWS V13.01,2013-09-26 07:45:00,
2013-09-26 02:50:00,48.7,44.1,30.04,NNE,31,0.0,0.0,84,0.00,,---,0.00,VWS V13.01,2013-09-26 07:50:00,
2013-09-26 02:55:00,48.7,44.1,30.04,NNE,31,0.0,0.0,84,0.00,,---,0.00,VWS V13.01,2013-09-26 07:55:00,
2013-09-26 03:00:00,48.6,44.0,30.04,NNE,31,0.0,0.0,84,0.00,,---,0.00,VWS V13.01,2013-09-26 08:00:00,
2013-09-26 03:05:00,48.6,44.0,30.04,NNE,31,0.0,0.0,84,0.00,,---,0.00,VWS V13.01,2013-09-26 08:05:00,
2013-09-26 03:10:00,48.6,44.0,30.04,NNE,31,0.0,0.0,84,0.00,,---,0.00,VWS V13.01,2013-09-26 08:10:00,
2013-09-26 03:15:00,48.6,44.3,30.04,NNE,31,0.0,0.0,85,0.00,,---,0.00,VWS V13.01,2013-09-26 08:15:00,
2013-09-26 03:20:00,48.6,44.3,30.04,NNE,31,0.0,0.0,85,0.00,,---,0.00,VWS V13.01,2013-09-26 08:20:00,
2013-09-26 03:25:00,48.6,44.3,30.04,NNE,31,0.0,0.0,85,0.00,,---,0.00,VWS V13.01,2013-09-26 08:25:00,
2013-09-26 03:30:00,48.6,44.3,30.04,NNE,31,0.0,0.0,85,0.00,,---,0.00,VWS V13.01,2013-09-26 08:30:00,
2013-09-26 03:35:00,48.6,44.3,30.04,NNE,31,0.0,0.0,85,0.00,,---,0.00,VWS V13.01,2013-09-26 08:35:00,
2013-09-26 03:40:00,48.6,44.3,30.04,NNE,31,0.0,0.0,85,0.00,,---,0.00,VWS V13.01,2013-09-26 08:40:00,
2013-09-26 03:45:00,48.6,44.3,30.04,NNE,31,0.0,0.0,85,0.00,,---,0.00,VWS V13.01,2013-09-26 08:45:00,
2013-09-26 03:50:00,48.6,44.3,30.04,NNE,31,0.0,0.0,85,0.00,,---,0.00,VWS V13.01,2013-09-26 08:50:00,
2013-09-26 03:55:00,48.7,44.4,30.04,NNE,31,0.0,0.0,85,0.00,,---,0.00,VWS V13.01,2013-09-26 08:55:00,
2013-09-26 04:00:00,48.7,44.4,30.04,NNE,31,0.0,0.0,85,0.00,,---,0.00,VWS V13.01,2013-09-26 09:00:00,
2013-09-26 04:05:00,48.7,44.4,30.04,NNE,31,0.0,0.0,85,0.00,,---,0.00,VWS V13.01,2013-09-26 09:05:00,
2013-09-26 04:10:00,48.9,44.6,30.04,NNE,31,0.0,0.0,85,0.00,,---,0.00,VWS V13.01,2013-09-26 09:10:00,
2013-09-26 04:15:00,48.9,44.6,30.04,NNE,31,0.0,0.0,85,0.00,,---,0.00,VWS V13.01,2013-09-26 09:15:00,
2013-09-26 04:20:00,49.1,44.8,30.04,NNE,31,0.0,0.0,85,0.00,,---,0.00,VWS V13.01,2013-09-26 09:20:00,
2013-09-26 04:25:00,49.1,44.8,30.04,NNE,31,0.0,0.0,85,0.00,,---,0.00,VWS V13.01,2013-09-26 09:25:00,
2013-09-26 04:30:00,49.1,44.8,30.04,NNE,31,0.0,0.0,85,0.00,,---,0.00,VWS V13.01,2013-09-26 09:30:00,
2013-09-26 04:35:00,49.1,44.8,30.04,NNE,31,0.0,0.0,85,0.00,,---,0.00,VWS V13.01,2013-09-26 09:35:00,
2013-09-26 04:40:00,49.1,44.8,30.04,NNE,31,0.0,0.0,85,0.00,,---,0.00,VWS V13.01,2013-09-26 09:40:00,
2013-09-26 04:46:00,49.1,44.8,30.04,NNE,31,0.0,0.0,85,0.00,,---,0.00,VWS V13.01,2013-09-26 09:46:00,
2013-09-26 04:51:00,48.9,44.6,30.04,NNE,31,0.0,0.0,85,0.00,,---,0.00,VWS V13.01,2013-09-26 09:51:00,
2013-09-26 04:56:00,48.9,44.6,30.04,NNE,31,0.0,0.0,85,0.00,,---,0.00,VWS V13.01,2013-09-26 09:56:00,
2013-09-26 05:01:00,48.7,44.4,30.04,NNE,31,0.0,0.0,85,0.00,,---,0.00,VWS V13.01,2013-09-26 10:01:00,
2013-09-26 05:06:00,48.6,44.3,30.04,NNE,31,0.0,0.0,85,0.00,,---,0.00,VWS V13.01,2013-09-26 10:06:00,
2013-09-26 05:11:00,48.4,44.1,30.04,NNE,31,0.0,0.0,85,0.00,,---,0.00,VWS V13.01,2013-09-26 10:11:00,
2013-09-26 05:16:00,48.0,43.7,30.04,NNE,31,0.0,0.0,85,0.00,,---,0.00,VWS V13.01,2013-09-26 10:16:00,
2013-09-26 05:21:00,48.0,43.7,30.04,NNE,31,0.0,0.0,85,0.00,,---,0.00,VWS V13.01,2013-09-26 10:21:00,
2013-09-26 05:26:00,47.7,43.4,30.04,NNE,31,0.0,0.0,85,0.00,,---,0.00,VWS V13.01,2013-09-26 10:26:00,
2013-09-26 05:31:00,47.7,43.4,30.04,NNE,31,0.0,0.0,85,0.00,,---,0.00,VWS V13.01,2013-09-26 10:31:00,
2013-09-26 05:36:00,47.5,43.2,30.04,NNE,31,0.0,0.0,85,0.00,,---,0.00,VWS V13.01,2013-09-26 10:36:00,
2013-09-26 05:41:00,47.5,43.5,30.04,NNE,31,0.0,0.0,86,0.00,,---,0.00,VWS V13.01,2013-09-26 10:41:00,
2013-09-26 05:46:00,47.5,43.5,30.04,NNE,31,0.0,0.0,86,0.00,,---,0.00,VWS V13.01,2013-09-26 10:46:00,
2013-09-26 05:51:00,47.3,43.3,30.04,NNE,31,0.0,0.0,86,0.00,,---,0.00,VWS V13.01,2013-09-26 10:51:00,
2013-09-26 05:57:00,47.1,42.8,30.04,NNE,31,0.0,0.0,85,0.00,,---,0.00,VWS V13.01,2013-09-26 10:57:00,
2013-09-26 06:02:00,46.8,42.5,30.04,NNE,31,0.0,0.0,85,0.00,,---,0.00,VWS V13.01,2013-09-26 11:02:00,
2013-09-26 06:07:00,46.6,42.3,30.04,NNE,31,0.0,0.0,85,0.00,,---,0.00,VWS V13.01,2013-09-26 11:07:00,
2013-09-26 06:12:00,46.6,42.3,30.04,NNE,31,0.0,0.0,85,0.00,,---,0.00,VWS V13.01,2013-09-26 11:12:00,
2013-09-26 06:17:00,46.4,42.1,30.04,NNE,31,0.0,0.0,85,0.00,,---,0.00,VWS V13.01,2013-09-26 11:17:00,
2013-09-26 06:22:00,46.4,42.1,30.04,NNE,31,0.0,0.0,85,0.00,,---,0.00,VWS V13.01,2013-09-26 11:22:00,
2013-09-26 06:27:00,46.4,42.5,30.04,NNE,31,0.0,0.0,86,0.00,,---,0.00,VWS V13.01,2013-09-26 11:27:00,
2013-09-26 06:32:00,46.4,42.5,30.04,NNE,31,0.0,0.0,86,0.00,,---,0.00,VWS V13.01,2013-09-26 11:32:00,
2013-09-26 06:37:00,46.4,42.5,30.04,NNE,31,0.0,0.0,86,0.00,,---,0.00,VWS V13.01,2013-09-26 11:37:00,
2013-09-26 06:42:00,46.2,42.3,30.04,NNE,31,0.0,0.0,86,0.00,,---,0.00,VWS V13.01,2013-09-26 11:42:00,
2013-09-26 06:47:00,46.2,42.3,30.04,NNE,31,0.0,0.0,86,0.00,,---,0.00,VWS V13.01,2013-09-26 11:47:00,
2013-09-26 06:52:00,46.2,42.3,30.04,NNE,31,0.0,0.0,86,0.00,,---,0.00,VWS V13.01,2013-09-26 11:52:00,
2013-09-26 06:57:00,46.4,42.5,30.04,NNE,31,0.0,0.0,86,0.00,,---,0.00,VWS V13.01,2013-09-26 11:57:00,
2013-09-26 07:03:00,46.2,42.3,30.04,NNE,31,0.0,0.0,86,0.00,,---,0.00,VWS V13.01,2013-09-26 12:03:00,
2013-09-26 07:08:00,46.2,42.3,30.04,NNE,31,0.0,0.0,86,0.00,,---,0.00,VWS V13.01,2013-09-26 12:08:00,
2013-09-26 07:13:00,46.0,42.1,30.04,NNE,31,0.0,0.0,86,0.00,,---,0.00,VWS V13.01,2013-09-26 12:13:00,
2013-09-26 07:18:00,45.9,41.9,30.04,NNE,31,0.0,0.0,86,0.00,,---,0.00,VWS V13.01,2013-09-26 12:18:00,
2013-09-26 07:23:00,45.7,41.7,30.04,NNE,31,0.0,0.0,86,0.00,,---,0.00,VWS V13.01,2013-09-26 12:23:00,
2013-09-26 07:28:00,45.7,41.7,30.04,NNE,31,0.0,0.0,86,0.00,,---,0.00,VWS V13.01,2013-09-26 12:28:00,
2013-09-26 07:33:00,45.5,41.6,30.04,NNE,31,0.0,0.0,86,0.00,,---,0.00,VWS V13.01,2013-09-26 12:33:00,
2013-09-26 07:38:00,45.5,41.6,30.04,NNE,31,0.0,0.0,86,0.00,,---,0.00,VWS V13.01,2013-09-26 12:38:00,
2013-09-26 07:43:00,45.7,41.7,30.04,NNE,31,0.0,0.0,86,0.00,,---,0.00,VWS V13.01,2013-09-26 12:43:00,
2013-09-26 07:48:00,45.9,41.9,30.04,NNE,31,0.0,0.0,86,0.00,,---,0.00,VWS V13.01,2013-09-26 12:48:00,
2013-09-26 07:53:00,46.0,42.1,30.04,NNE,31,0.0,0.0,86,0.00,,---,0.00,VWS V13.01,2013-09-26 12:53:00,
2013-09-26 07:59:00,46.6,42.6,30.04,NNE,31,0.0,0.0,86,0.00,,---,0.00,VWS V13.01,2013-09-26 12:59:00,
2013-09-26 08:04:00,47.1,43.2,30.04,NNE,31,0.0,0.0,86,0.00,,---,0.00,VWS V13.01,2013-09-26 13:04:00,
2013-09-26 08:09:00,47.7,44.0,30.04,NNE,31,0.0,0.0,87,0.00,,---,0.00,VWS V13.01,2013-09-26 13:09:00,
2013-09-26 08:14:00,48.4,44.7,30.07,NNE,31,0.0,0.0,87,0.00,,---,0.00,VWS V13.01,2013-09-26 13:14:00,
2013-09-26 08:19:00,49.1,45.4,30.07,NNE,31,0.0,0.0,87,0.00,,---,0.00,VWS V13.01,2013-09-26 13:19:00,
2013-09-26 08:24:00,49.6,45.9,30.07,NNE,31,0.0,0.0,87,0.00,,---,0.00,VWS V13.01,2013-09-26 13:24:00,
2013-09-26 08:29:00,49.8,46.1,30.07,NNE,31,0.0,0.0,87,0.00,,---,0.00,VWS V13.01,2013-09-26 13:29:00,
2013-09-26 08:34:00,50.2,46.5,30.07,NNE,31,0.0,0.0,87,0.00,,---,0.00,VWS V13.01,2013-09-26 13:34:00,
2013-09-26 08:39:00,50.4,46.6,30.07,NNE,31,0.0,0.0,87,0.00,,---,0.00,VWS V13.01,2013-09-26 13:39:00,
2013-09-26 08:44:00,50.5,46.8,30.07,NNE,31,0.0,0.0,87,0.00,,---,0.00,VWS V13.01,2013-09-26 13:44:00,
2013-09-26 08:49:00,50.7,47.0,30.07,NNE,31,0.0,0.0,87,0.00,,---,0.00,VWS V13.01,2013-09-26 13:49:00,
2013-09-26 08:54:00,50.9,47.2,30.07,NNE,31,0.0,0.0,87,0.00,,---,0.00,VWS V13.01,2013-09-26 13:54:00,
2013-09-26 09:00:00,51.3,47.5,30.07,NNE,31,0.0,0.0,87,0.00,,---,0.00,VWS V13.01,2013-09-26 14:00:00,
2013-09-26 09:05:00,51.3,47.5,30.07,NNE,31,0.0,0.0,87,0.00,,---,0.00,VWS V13.01,2013-09-26 14:05:00,
2013-09-26 09:10:00,51.4,47.7,30.07,NNE,31,0.0,0.0,87,0.00,,---,0.00,VWS V13.01,2013-09-26 14:10:00,
2013-09-26 09:15:00,51.6,47.9,30.07,NNE,31,0.0,0.0,87,0.00,,---,0.00,VWS V13.01,2013-09-26 14:15:00,
2013-09-26 09:20:00,51.8,48.1,30.07,NNE,31,0.0,0.0,87,0.00,,---,0.00,VWS V13.01,2013-09-26 14:20:00,
2013-09-26 09:25:00,52.2,48.4,30.07,NNE,31,0.0,0.0,87,0.00,,---,0.00,VWS V13.01,2013-09-26 14:25:00,
2013-09-26 09:30:00,52.5,48.8,30.07,NNE,31,0.0,0.0,87,0.00,,---,0.00,VWS V13.01,2013-09-26 14:30:00,
2013-09-26 09:35:00,52.7,49.0,30.07,NNE,31,0.0,0.0,87,0.00,,---,0.00,VWS V13.01,2013-09-26 14:35:00,
2013-09-26 09:40:00,52.9,49.1,30.07,South,183,3.6,3.6,87,0.00,,---,0.00,VWS V13.01,2013-09-26 14:40:00,
2013-09-26 09:45:00,53.2,49.8,30.07,South,183,3.6,3.6,88,0.00,,---,0.00,VWS V13.01,2013-09-26 14:45:00,
2013-09-26 09:50:00,53.6,49.8,30.07,WSW,239,4.5,4.5,87,0.00,,---,0.00,VWS V13.01,2013-09-26 14:50:00,
2013-09-26 09:56:00,53.8,50.0,30.07,WSW,239,0.0,3.1,87,0.00,,---,0.00,VWS V13.01,2013-09-26 14:56:00,
2013-09-26 10:01:00,54.1,50.4,30.07,WSW,239,2.7,4.5,87,0.00,,---,0.00,VWS V13.01,2013-09-26 15:01:00,
2013-09-26 10:06:00,54.5,50.4,30.07,WSW,239,0.0,3.6,86,0.00,,---,0.00,VWS V13.01,2013-09-26 15:06:00,
2013-09-26 10:11:00,54.9,50.4,30.07,WSW,239,0.0,0.0,85,0.00,,---,0.00,VWS V13.01,2013-09-26 15:11:00,
2013-09-26 10:16:00,55.2,50.2,30.07,WSW,239,3.6,3.6,83,0.00,,---,0.00,VWS V13.01,2013-09-26 15:16:00,
2013-09-26 10:21:00,55.6,48.5,30.07,WSW,239,0.0,3.6,77,0.00,,---,0.00,VWS V13.01,2013-09-26 15:21:00,
2013-09-26 10:26:00,56.1,46.9,30.07,WSW,239,0.0,0.0,71,0.00,,---,0.00,VWS V13.01,2013-09-26 15:26:00,
2013-09-26 10:31:00,56.7,46.6,30.07,SSW,209,3.6,3.6,69,0.00,,---,0.00,VWS V13.01,2013-09-26 15:31:00,
2013-09-26 10:36:00,57.0,46.2,30.07,SW,231,3.1,3.1,67,0.00,,---,0.00,VWS V13.01,2013-09-26 15:36:00,
2013-09-26 10:41:00,57.6,45.1,30.07,WSW,258,3.1,3.1,63,0.00,,---,0.00,VWS V13.01,2013-09-26 15:41:00,
2013-09-26 10:46:00,57.9,43.7,30.04,WSW,238,0.0,0.0,59,0.00,,---,0.00,VWS V13.01,2013-09-26 15:46:00,
2013-09-26 10:51:00,58.3,43.1,30.04,SE,138,3.1,3.6,57,0.00,,---,0.00,VWS V13.01,2013-09-26 15:51:00,
2013-09-26 10:57:00,58.5,42.4,30.04,South,171,0.0,0.0,55,0.00,,---,0.00,VWS V13.01,2013-09-26 15:57:00,
2013-09-26 11:02:00,58.8,42.7,30.04,SW,226,0.0,0.0,55,0.00,,---,0.00,VWS V13.01,2013-09-26 16:02:00,
2013-09-26 11:07:00,59.2,42.1,30.04,SW,226,2.7,3.1,53,0.00,,---,0.00,VWS V13.01,2013-09-26 16:07:00,
2013-09-26 11:12:00,59.4,41.2,30.04,NE,52,0.0,4.7,51,0.00,,---,0.00,VWS V13.01,2013-09-26 16:12:00,
2013-09-26 11:17:00,59.9,41.2,30.04,ESE,123,2.7,4.0,50,0.00,,---,0.00,VWS V13.01,2013-09-26 16:17:00,
2013-09-26 11:22:00,60.3,41.0,30.04,SSE,155,0.0,4.5,49,0.00,,---,0.00,VWS V13.01,2013-09-26 16:22:00,
2013-09-26 11:27:00,60.6,40.8,30.04,SE,140,0.0,0.0,48,0.00,,---,0.00,VWS V13.01,2013-09-26 16:27:00,
2013-09-26 11:32:00,61.0,40.6,30.04,ESE,118,3.1,3.6,47,0.00,,---,0.00,VWS V13.01,2013-09-26 16:32:00,
2013-09-26 11:37:00,61.3,41.0,30.04,SE,130,3.1,4.0,47,0.00,,---,0.00,VWS V13.01,2013-09-26 16:37:00,
2013-09-26 11:42:00,61.5,40.0,30.04,South,179,2.7,4.5,45,0.00,,---,0.00,VWS V13.01,2013-09-26 16:42:00,
2013-09-26 11:47:00,61.9,40.9,30.04,SSW,200,4.0,4.0,46,0.00,,---,0.00,VWS V13.01,2013-09-26 16:47:00,
2013-09-26 11:52:00,62.2,40.7,30.04,WSW,247,0.0,0.0,45,0.00,,---,0.00,VWS V13.01,2013-09-26 16:52:00,
2013-09-26 11:57:00,62.6,41.0,30.04,WSW,247,0.0,0.0,45,0.00,,---,0.00,VWS V13.01,2013-09-26 16:57:00,
2013-09-26 12:02:00,63.0,41.3,30.04,WSW,247,0.0,2.7,45,0.00,,---,0.00,VWS V13.01,2013-09-26 17:02:00,
2013-09-26 12:08:00,63.5,41.2,30.04,WSW,247,0.0,0.0,44,0.00,,---,0.00,VWS V13.01,2013-09-26 17:08:00,
2013-09-26 12:13:00,64.0,41.1,30.04,WSW,247,3.6,3.6,43,0.00,,---,0.00,VWS V13.01,2013-09-26 17:13:00,
2013-09-26 12:18:00,64.4,40.2,30.04,WSW,247,0.0,4.0,41,0.00,,---,0.00,VWS V13.01,2013-09-26 17:18:00,
2013-09-26 12:23:00,64.8,40.5,30.04,WSW,247,0.0,0.0,41,0.00,,---,0.00,VWS V13.01,2013-09-26 17:23:00,
2013-09-26 12:28:00,64.9,40.7,30.04,WSW,247,0.0,0.0,41,0.00,,---,0.00,VWS V13.01,2013-09-26 17:28:00,
2013-09-26 12:33:00,65.5,40.5,30.04,SSE,161,0.0,0.0,40,0.00,,---,0.00,VWS V13.01,2013-09-26 17:33:00,
2013-09-26 12:38:00,65.8,40.2,30.04,SSW,196,2.7,3.6,39,0.00,,---,0.00,VWS V13.01,2013-09-26 17:38:00,
2013-09-26 12:43:00,66.0,40.4,30.04,SSW,194,0.0,4.0,39,0.00,,---,0.00,VWS V13.01,2013-09-26 17:43:00,
2013-09-26 12:48:00,66.6,40.2,30.04,South,170,3.1,3.1,38,0.00,,---,0.00,VWS V13.01,2013-09-26 17:48:00,
2013-09-26 12:53:00,66.9,39.8,30.04,SSE,157,0.0,0.0,37,0.00,,---,0.00,VWS V13.01,2013-09-26 17:53:00,
2013-09-26 12:58:00,67.1,40.0,30.04,SE,133,0.0,0.0,37,0.00,,---,0.00,VWS V13.01,2013-09-26 17:58:00,
2013-09-26 13:03:00,67.5,40.3,30.04,SSE,156,2.7,4.5,37,0.00,,---,0.00,VWS V13.01,2013-09-26 18:03:00,
2013-09-26 13:08:00,68.0,40.1,30.04,WSW,250,0.0,0.0,36,0.00,,---,0.00,VWS V13.01,2013-09-26 18:08:00,
2013-09-26 13:14:00,68.9,40.9,30.04,WSW,250,0.0,0.0,36,0.00,,---,0.00,VWS V13.01,2013-09-26 18:14:00,
2013-09-26 13:19:00,69.6,40.8,30.04,WSW,250,0.0,0.0,35,0.00,,---,0.00,VWS V13.01,2013-09-26 18:19:00,
2013-09-26 13:24:00,70.0,40.3,30.04,WSW,250,0.0,0.0,34,0.00,,---,0.00,VWS V13.01,2013-09-26 18:24:00,
2013-09-26 13:29:00,70.0,40.3,30.01,WSW,250,0.0,4.5,34,0.00,,---,0.00,VWS V13.01,2013-09-26 18:29:00,
2013-09-26 13:34:00,70.5,40.8,30.01,WSW,250,0.0,0.0,34,0.00,,---,0.00,VWS V13.01,2013-09-26 18:34:00,
2013-09-26 13:39:00,70.7,40.2,30.01,ENE,73,0.0,0.0,33,0.00,,---,0.00,VWS V13.01,2013-09-26 18:39:00,
2013-09-26 13:44:00,71.1,41.3,30.01,South,184,2.7,3.6,34,0.00,,---,0.00,VWS V13.01,2013-09-26 18:44:00,
2013-09-26 13:50:00,71.6,41.0,30.01,South,184,0.0,0.0,33,0.00,,---,0.00,VWS V13.01,2013-09-26 18:50:00,
2013-09-26 13:55:00,71.8,41.2,30.01,ENE,77,0.0,0.0,33,0.00,,---,0.00,VWS V13.01,2013-09-26 18:55:00,
2013-09-26 14:00:00,71.8,41.2,30.01,ESE,105,0.0,0.0,33,0.00,,---,0.00,VWS V13.01,2013-09-26 19:00:00,
2013-09-26 14:05:00,72.0,41.3,30.01,SSE,162,0.0,0.0,33,0.00,,---,0.00,VWS V13.01,2013-09-26 19:05:00,
2013-09-26 14:10:00,72.0,41.3,30.01,SSE,154,0.0,0.0,33,0.00,,---,0.00,VWS V13.01,2013-09-26 19:10:00,
2013-09-26 14:15:00,72.0,41.3,30.01,ESE,105,3.1,3.1,33,0.00,,---,0.00,VWS V13.01,2013-09-26 19:15:00,
2013-09-26 14:20:00,72.0,41.3,30.01,SSE,164,0.0,0.0,33,0.00,,---,0.00,VWS V13.01,2013-09-26 19:20:00,
2013-09-26 14:26:00,71.8,41.2,30.01,ESE,114,0.0,0.0,33,0.00,,---,0.00,VWS V13.01,2013-09-26 19:26:00,
2013-09-26 14:31:00,72.1,41.5,30.01,ESE,114,0.0,0.0,33,0.00,,---,0.00,VWS V13.01,2013-09-26 19:31:00,
2013-09-26 14:36:00,72.1,41.5,30.01,SSE,164,0.0,3.6,33,0.00,,---,0.00,VWS V13.01,2013-09-26 19:36:00,
2013-09-26 14:41:00,72.0,41.3,30.01,ESE,118,0.0,0.0,33,0.00,,---,0.00,VWS V13.01,2013-09-26 19:41:00,
2013-09-26 14:46:00,72.0,41.3,30.01,East,89,3.6,3.6,33,0.00,,---,0.00,VWS V13.01,2013-09-26 19:46:00,
2013-09-26 14:51:00,72.1,42.2,30.01,East,89,0.0,0.0,34,0.00,,---,0.00,VWS V13.01,2013-09-26 19:51:00,
2013-09-26 14:56:00,72.0,41.3,30.01,East,88,0.0,0.0,33,0.00,,---,0.00,VWS V13.01,2013-09-26 19:56:00,
2013-09-26 15:01:00,71.4,41.6,30.01,East,88,0.0,0.0,34,0.00,,---,0.00,VWS V13.01,2013-09-26 20:01:00,
2013-09-26 15:06:00,70.9,41.9,30.01,ENE,77,0.0,0.0,35,0.00,,---,0.00,VWS V13.01,2013-09-26 20:06:00,
2013-09-26 15:11:00,70.5,41.6,30.01,ENE,76,0.0,0.0,35,0.00,,---,0.00,VWS V13.01,2013-09-26 20:11:00,
2013-09-26 15:16:00,70.9,41.9,30.01,ENE,76,0.0,0.0,35,0.00,,---,0.00,VWS V13.01,2013-09-26 20:16:00,
2013-09-26 15:22:00,70.7,41.7,30.01,East,96,0.0,0.0,35,0.00,,---,0.00,VWS V13.01,2013-09-26 20:22:00,
2013-09-26 15:27:00,70.3,41.4,30.01,ENE,64,3.6,3.6,35,0.00,,---,0.00,VWS V13.01,2013-09-26 20:27:00,
2013-09-26 15:32:00,69.3,41.2,30.01,ENE,68,0.0,0.0,36,0.00,,---,0.00,VWS V13.01,2013-09-26 20:32:00,
2013-09-26 15:37:00,68.7,41.4,30.01,NE,50,3.1,3.6,37,0.00,,---,0.00,VWS V13.01,2013-09-26 20:37:00,
2013-09-26 15:42:00,68.0,40.8,30.01,ENE,75,0.0,4.0,37,0.00,,---,0.00,VWS V13.01,2013-09-26 20:42:00,
2013-09-26 15:47:00,67.3,40.8,30.01,ESE,121,0.0,0.0,38,0.00,,---,0.00,VWS V13.01,2013-09-26 20:47:00,
2013-09-26 15:52:00,67.1,41.3,30.01,ESE,117,2.7,3.6,39,0.00,,---,0.00,VWS V13.01,2013-09-26 20:52:00,
2013-09-26 15:57:00,66.7,41.7,30.01,ENE,77,0.0,0.0,40,0.00,,---,0.00,VWS V13.01,2013-09-26 20:57:00,
2013-09-26 16:02:00,66.4,41.3,30.01,ENE,65,0.0,0.0,40,0.00,,---,0.00,VWS V13.01,2013-09-26 21:02:00,
2013-09-26 16:07:00,66.2,41.8,30.01,ENE,63,0.0,0.0,41,0.00,,---,0.00,VWS V13.01,2013-09-26 21:07:00,
2013-09-26 16:12:00,66.0,42.3,30.01,ESE,105,0.0,0.0,42,0.00,,---,0.00,VWS V13.01,2013-09-26 21:12:00,
2013-09-26 16:17:00,66.0,42.3,30.01,ENE,57,2.7,3.6,42,0.00,,---,0.00,VWS V13.01,2013-09-26 21:17:00,
2013-09-26 16:22:00,65.5,41.2,30.01,ENE,63,0.0,0.0,41,0.00,,---,0.00,VWS V13.01,2013-09-26 21:22:00,
2013-09-26 16:27:00,64.8,41.8,30.01,SE,128,0.0,3.1,43,0.00,,---,0.00,VWS V13.01,2013-09-26 21:27:00,
2013-09-26 16:32:00,64.2,41.9,30.01,East,98,0.0,0.0,44,0.00,,---,0.00,VWS V13.01,2013-09-26 21:32:00,
2013-09-26 16:37:00,64.0,42.3,30.01,East,81,0.0,0.0,45,0.00,,---,0.00,VWS V13.01,2013-09-26 21:37:00,
2013-09-26 16:42:00,63.7,42.0,29.98,ENE,64,0.0,2.7,45,0.00,,---,0.00,VWS V13.01,2013-09-26 21:42:00,
2013-09-26 16:47:00,63.3,42.2,29.98,ENE,65,0.0,0.0,46,0.00,,---,0.00,VWS V13.01,2013-09-26 21:47:00,
2013-09-26 16:52:00,63.1,42.6,29.98,ENE,68,0.0,0.0,47,0.00,,---,0.00,VWS V13.01,2013-09-26 21:52:00,
2013-09-26 16:57:00,63.0,43.0,29.98,ESE,115,0.0,3.1,48,0.00,,---,0.00,VWS V13.01,2013-09-26 21:57:00,
2013-09-26 17:02:00,62.8,42.8,29.98,ENE,62,0.0,3.6,48,0.00,,---,0.00,VWS V13.01,2013-09-26 22:02:00,
2013-09-26 17:07:00,62.6,43.2,29.98,SW,221,0.0,0.0,49,0.00,,---,0.00,VWS V13.01,2013-09-26 22:07:00,
2013-09-26 17:13:00,62.2,43.9,29.98,NE,51,4.5,5.1,51,0.00,,---,0.00,VWS V13.01,2013-09-26 22:13:00,
2013-09-26 17:18:00,61.9,43.6,29.98,ENE,63,0.0,0.0,51,0.00,,---,0.00,VWS V13.01,2013-09-26 22:18:00,
2013-09-26 17:23:00,61.7,44.4,29.98,NE,46,4.7,4.7,53,0.00,,---,0.00,VWS V13.01,2013-09-26 22:23:00,
2013-09-26 17:28:00,61.7,44.4,29.98,NNE,23,3.6,4.7,53,0.00,,---,0.00,VWS V13.01,2013-09-26 22:28:00,
2013-09-26 17:33:00,61.5,44.7,29.98,NE,44,0.0,3.1,54,0.00,,---,0.00,VWS V13.01,2013-09-26 22:33:00,
2013-09-26 17:38:00,61.3,44.6,29.98,ENE,66,0.0,0.0,54,0.00,,---,0.00,VWS V13.01,2013-09-26 22:38:00,
2013-09-26 17:43:00,61.3,44.6,29.98,NE,50,4.7,4.7,54,0.00,,---,0.00,VWS V13.01,2013-09-26 22:43:00,
2013-09-26 17:48:00,61.2,44.4,29.98,NE,44,3.6,4.7,54,0.00,,---,0.00,VWS V13.01,2013-09-26 22:48:00,
2013-09-26 17:53:00,61.0,44.7,29.98,ENE,69,3.1,3.1,55,0.00,,---,0.00,VWS V13.01,2013-09-26 22:53:00,
2013-09-26 17:59:00,60.8,45.0,29.98,ENE,68,0.0,0.0,56,0.00,,---,0.00,VWS V13.01,2013-09-26 22:59:00,
2013-09-26 18:04:00,60.6,45.3,29.98,NE,55,3.6,4.5,57,0.00,,---,0.00,VWS V13.01,2013-09-26 23:04:00,
2013-09-26 18:09:00,60.4,45.2,29.98,NE,50,4.0,4.0,57,0.00,,---,0.00,VWS V13.01,2013-09-26 23:09:00,
2013-09-26 18:14:00,60.3,45.4,29.98,NE,50,0.0,2.7,58,0.00,,---,0.00,VWS V13.01,2013-09-26 23:14:00,
2013-09-26 18:19:00,60.1,45.3,29.98,NE,51,0.0,0.0,58,0.00,,---,0.00,VWS V13.01,2013-09-26 23:19:00,
2013-09-26 18:24:00,59.9,45.5,29.98,NE,51,0.0,3.6,59,0.00,,---,0.00,VWS V13.01,2013-09-26 23:24:00,
2013-09-26 18:29:00,59.7,45.4,29.98,NE,51,0.0,0.0,59,0.00,,---,0.00,VWS V13.01,2013-09-26 23:29:00,
2013-09-26 18:34:00,59.5,45.7,29.98,ENE,72,0.0,0.0,60,0.00,,---,0.00,VWS V13.01,2013-09-26 23:34:00,
2013-09-26 18:39:00,59.4,45.5,29.98,ENE,62,0.0,3.6,60,0.00,,---,0.00,VWS V13.01,2013-09-26 23:39:00,
2013-09-26 18:45:00,59.2,45.8,29.98,ENE,62,0.0,0.0,61,0.00,,---,0.00,VWS V13.01,2013-09-26 23:45:00,
2013-09-26 18:50:00,58.8,45.8,29.98,ENE,62,0.0,0.0,62,0.00,,---,0.00,VWS V13.01,2013-09-26 23:50:00,
2013-09-26 18:55:00,58.6,46.1,29.98,ENE,62,0.0,0.0,63,0.00,,---,0.00,VWS V13.01,2013-09-26 23:55:00,
2013-09-26 19:00:00,58.5,46.3,29.98,ENE,62,0.0,0.0,64,0.00,,---,0.00,VWS V13.01,2013-09-27 00:00:00,
2013-09-26 19:05:00,58.1,46.0,29.98,ENE,62,0.0,0.0,64,0.00,,---,0.00,VWS V13.01,2013-09-27 00:05:00,
2013-09-26 19:10:00,57.9,45.8,29.98,ENE,62,0.0,0.0,64,0.00,,---,0.00,VWS V13.01,2013-09-27 00:10:00,
2013-09-26 19:15:00,57.4,45.7,29.98,ENE,62,0.0,0.0,65,0.00,,---,0.00,VWS V13.01,2013-09-27 00:15:00,
2013-09-26 19:20:00,57.0,45.8,29.98,ENE,62,0.0,0.0,66,0.00,,---,0.00,VWS V13.01,2013-09-27 00:20:00,
2013-09-26 19:25:00,56.8,45.6,29.98,ENE,62,0.0,0.0,66,0.00,,---,0.00,VWS V13.01,2013-09-27 00:25:00,
2013-09-26 19:30:00,56.7,45.8,29.98,ENE,62,0.0,0.0,67,0.00,,---,0.00,VWS V13.01,2013-09-27 00:30:00,
2013-09-26 19:35:00,56.5,45.7,29.98,ENE,62,0.0,0.0,67,0.00,,---,0.00,VWS V13.01,2013-09-27 00:35:00,
2013-09-26 19:41:00,56.3,45.9,29.98,ENE,62,0.0,0.0,68,0.00,,---,0.00,VWS V13.01,2013-09-27 00:41:00,
2013-09-26 19:46:00,56.1,45.7,29.98,ENE,62,0.0,0.0,68,0.00,,---,0.00,VWS V13.01,2013-09-27 00:46:00,
2013-09-26 19:51:00,55.9,45.5,29.98,ENE,62,0.0,0.0,68,0.00,,---,0.00,VWS V13.01,2013-09-27 00:51:00,
2013-09-26 19:56:00,55.6,45.2,29.98,ENE,62,0.0,0.0,68,0.00,,---,0.00,VWS V13.01,2013-09-27 00:56:00,
2013-09-26 20:01:00,55.2,45.2,29.98,ENE,62,0.0,0.0,69,0.00,,---,0.00,VWS V13.01,2013-09-27 01:01:00,
2013-09-26 20:06:00,55.0,45.1,29.98,ENE,62,0.0,0.0,69,0.00,,---,0.00,VWS V13.01,2013-09-27 01:06:00,
2013-09-26 20:11:00,54.7,44.7,29.98,ENE,62,0.0,0.0,69,0.00,,---,0.00,VWS V13.01,2013-09-27 01:11:00,
2013-09-26 20:16:00,54.5,44.5,29.98,ENE,62,0.0,0.0,69,0.00,,---,0.00,VWS V13.01,2013-09-27 01:16:00,
2013-09-26 20:21:00,54.5,44.9,29.98,ENE,62,0.0,0.0,70,0.00,,---,0.00,VWS V13.01,2013-09-27 01:21:00,
2013-09-26 20:26:00,54.5,44.9,29.98,ENE,62,0.0,0.0,70,0.00,,---,0.00,VWS V13.01,2013-09-27 01:26:00,
2013-09-26 20:31:00,54.5,44.9,30.01,ENE,62,0.0,0.0,70,0.00,,---,0.00,VWS V13.01,2013-09-27 01:31:00,
2013-09-26 20:36:00,54.5,45.3,30.01,ENE,62,0.0,0.0,71,0.00,,---,0.00,VWS V13.01,2013-09-27 01:36:00,
2013-09-26 20:42:00,54.5,45.3,30.01,ENE,62,0.0,0.0,71,0.00,,---,0.00,VWS V13.01,2013-09-27 01:42:00,
2013-09-26 20:47:00,54.7,45.5,30.01,ENE,62,0.0,0.0,71,0.00,,---,0.00,VWS V13.01,2013-09-27 01:47:00,
2013-09-26 20:52:00,54.9,45.7,30.01,ENE,62,0.0,0.0,71,0.00,,---,0.00,VWS V13.01,2013-09-27 01:52:00,
2013-09-26 20:57:00,54.9,46.0,30.01,ENE,62,0.0,0.0,72,0.00,,---,0.00,VWS V13.01,2013-09-27 01:57:00,
2013-09-26 21:02:00,55.0,46.2,30.01,ENE,62,0.0,0.0,72,0.00,,---,0.00,VWS V13.01,2013-09-27 02:02:00,
2013-09-26 21:07:00,55.2,46.4,30.01,ENE,62,0.0,0.0,72,0.00,,---,0.00,VWS V13.01,2013-09-27 02:07:00,
2013-09-26 21:12:00,55.2,46.0,30.01,ENE,62,0.0,0.0,71,0.00,,---,0.00,VWS V13.01,2013-09-27 02:12:00,
2013-09-26 21:17:00,55.4,46.2,30.01,ENE,62,0.0,0.0,71,0.00,,---,0.00,VWS V13.01,2013-09-27 02:17:00,
2013-09-26 21:22:00,55.6,46.3,30.01,ENE,62,0.0,0.0,71,0.00,,---,0.00,VWS V13.01,2013-09-27 02:22:00,
2013-09-26 21:27:00,55.6,46.3,30.01,ENE,62,0.0,0.0,71,0.00,,---,0.00,VWS V13.01,2013-09-27 02:27:00,
2013-09-26 21:32:00,55.8,46.1,30.01,ENE,62,0.0,0.0,70,0.00,,---,0.00,VWS V13.01,2013-09-27 02:32:00,
2013-09-26 21:37:00,55.9,46.3,30.01,ENE,62,0.0,0.0,70,0.00,,---,0.00,VWS V13.01,2013-09-27 02:37:00,
2013-09-26 21:43:00,55.9,46.3,30.01,ENE,62,0.0,0.0,70,0.00,,---,0.00,VWS V13.01,2013-09-27 02:43:00,
2013-09-26 21:48:00,56.1,46.1,30.01,ENE,62,0.0,0.0,69,0.00,,---,0.00,VWS V13.01,2013-09-27 02:48:00,
2013-09-26 21:53:00,56.1,46.1,30.01,ENE,62,0.0,0.0,69,0.00,,---,0.00,VWS V13.01,2013-09-27 02:53:00,
2013-09-26 21:58:00,56.3,46.3,30.01,ENE,62,0.0,0.0,69,0.00,,---,0.00,VWS V13.01,2013-09-27 02:58:00,
2013-09-26 22:03:00,56.1,46.1,30.01,ENE,62,0.0,0.0,69,0.00,,---,0.00,VWS V13.01,2013-09-27 03:03:00,
2013-09-26 22:08:00,56.1,46.1,30.01,ENE,62,0.0,0.0,69,0.00,,---,0.00,VWS V13.01,2013-09-27 03:08:00,
2013-09-26 22:14:00,56.1,46.1,30.01,ENE,62,0.0,0.0,69,0.00,,---,0.00,VWS V13.01,2013-09-27 03:14:00,
2013-09-26 22:19:00,56.1,46.1,30.01,ENE,62,0.0,0.0,69,0.00,,---,0.00,VWS V13.01,2013-09-27 03:19:00,
2013-09-26 22:24:00,56.3,46.3,30.01,SSE,168,0.0,0.0,69,0.00,,---,0.00,VWS V13.01,2013-09-27 03:24:00,
2013-09-26 22:29:00,56.7,46.6,30.01,SSE,168,0.0,0.0,69,0.00,,---,0.00,VWS V13.01,2013-09-27 03:29:00,
2013-09-26 22:34:00,56.7,46.6,30.01,SSE,168,0.0,0.0,69,0.00,,---,0.00,VWS V13.01,2013-09-27 03:34:00,
2013-09-26 22:39:00,57.0,47.0,30.01,SSE,168,0.0,0.0,69,0.00,,---,0.00,VWS V13.01,2013-09-27 03:39:00,
2013-09-26 22:44:00,57.4,47.3,30.01,SSE,168,0.0,0.0,69,0.00,,---,0.00,VWS V13.01,2013-09-27 03:44:00,
2013-09-26 22:49:00,57.6,47.1,30.01,SSE,168,0.0,0.0,68,0.00,,---,0.00,VWS V13.01,2013-09-27 03:49:00,
2013-09-26 22:54:00,57.9,47.0,30.01,SSE,168,0.0,0.0,67,0.00,,---,0.00,VWS V13.01,2013-09-27 03:54:00,
2013-09-26 22:59:00,58.5,47.2,30.01,SSE,168,3.1,4.0,66,0.00,,---,0.00,VWS V13.01,2013-09-27 03:59:00,
2013-09-26 23:01:00,58.6,46.9,30.01,SSE,168,4.0,4.0,65,0.00,,---,0.00,VWS V13.01,2013-09-27 04:01:00,
2013-09-26 23:06:00,59.0,46.0,30.01,SSE,168,2.7,3.1,62,0.00,,---,0.00,VWS V13.01,2013-09-27 04:06:00,
2013-09-26 23:11:00,59.2,44.4,30.01,SSE,168,0.0,0.0,58,0.00,,---,0.00,VWS V13.01,2013-09-27 04:11:00,
2013-09-26 23:16:00,59.2,44.0,30.01,SSE,168,0.0,0.0,57,0.00,,---,0.00,VWS V13.01,2013-09-27 04:16:00,
2013-09-26 23:21:00,59.2,43.5,30.01,SSE,168,0.0,0.0,56,0.00,,---,0.00,VWS V13.01,2013-09-27 04:21:00,
2013-09-26 23:26:00,59.0,43.3,30.01,SSE,168,0.0,0.0,56,0.00,,---,0.00,VWS V13.01,2013-09-27 04:26:00,
2013-09-26 23:31:00,58.5,43.3,30.01,SSE,168,0.0,0.0,57,0.00,,---,0.00,VWS V13.01,2013-09-27 04:31:00,
2013-09-26 23:37:00,58.1,43.0,30.01,SSE,168,0.0,0.0,57,0.00,,---,0.00,VWS V13.01,2013-09-27 04:37:00,
2013-09-26 23:42:00,57.7,43.1,30.01,SSE,168,0.0,0.0,58,0.00,,---,0.00,VWS V13.01,2013-09-27 04:42:00,
2013-09-26 23:47:00,57.4,43.2,30.01,SSE,168,0.0,0.0,59,0.00,,---,0.00,VWS V13.01,2013-09-27 04:47:00,
2013-09-26 23:52:00,57.2,43.5,30.01,SSE,168,0.0,0.0,60,0.00,,---,0.00,VWS V13.01,2013-09-27 04:52:00,
2013-09-26 23:57:00,57.2,43.9,30.01,SSE,168,0.0,0.0,61,0.00,,---,0.00,VWS V13.01,2013-09-27 04:57:00,